(°C)
13°
13°
13°
13°
13°
12°
13°
(°C)
12°
12°
12°
12°
12°
12°
12°
NNW
N
N
N
N
N
N
(km/h)
4-9
4-8
4-8
3-7
3-7
3-7
3-6
(mm)
0
0
0
0
0
0
0
(%)
5
4
4
4
3
3
2

Elevazione del sole

/ -16.1°
sun-icon
UV 4
05:12
21:11
Luna crescente (6°)
05:18
22:17

METAR per Renton (KRNT)

Ora Condizioni Temperatura/
Punto di rugiada
Vento Visibilità Meteo Nuvole Pressione Cambiamento Grezzo
VFR 15°C / 10.6°C variable 0kt >10km - Clear 1021 - KRNT 300553Z 00000KT 10SM CLR 15/11 A3015 RMK AO2 SLP215 60000 T01500106 10194 20150 58001
VFR 16.1°C / 10.6°C variable 0kt >10km 0.13mm precipitation Clear 1021 - KRNT 300453Z 00000KT 10SM CLR 16/11 A3015 RMK AO2 RAB31E42 SLP216 P0000 T01610106
VFR 17.8°C / 11.1°C variable 0kt 9700m Haze Vertical Visibility of 0ft. 1021 - KRNT 300353Z 00000KT 6SM HZ CLR 18/11 A3015 RMK AO2 SLP215 T01780111
VFR 18.3°C / 10.6°C 340º 3kt >10km - Broken Clouds 4600ft 1021 - KRNT 300253Z 34003KT 8SM BKN046 18/11 A3016 RMK AO2 SLP216 T01830106 56002
VFR 18.9°C / 10.6°C 330º 5kt >10km - Overcast 4400ft 1021 - KRNT 300153Z 33005KT 9SM OVC044 19/11 A3016 RMK AO2 SLP216 T01890106
VFR 18.9°C / 10°C variable 0kt >10km - Overcast 4300ft 1021 - KRNT 300053Z 00000KT 9SM OVC043 19/10 A3016 RMK AO2 SLP217 T01890100
VFR 18.9°C / 10.6°C 140º 5kt >10km - Overcast 4700ft 1021 - KRNT 292353Z 14005KT 9SM OVC047 19/11 A3016 RMK AO2 SLP218 T01890106 10194 20156 58007
VFR 18.3°C / 10°C 80º 3kt >10km - Overcast 4100ft 1022 - KRNT 292253Z 08003KT 10SM OVC041 18/10 A3018 RMK AO2 SLP223 T01830100
VFR 17.8°C / 9.4°C variable 4kt >10km - Overcast 3900ft 1022 - KRNT 292153Z VRB04KT 10SM OVC039 18/09 A3018 RMK AO2 SLP225 T01780094
VFR 17.8°C / 8.9°C 180º 5kt >10km - Overcast 3600ft 1022 - KRNT 292053Z 18005KT 10SM OVC036 18/09 A3018 RMK AO2 SLP226 T01780089 58001
VFR 17.2°C / 9.4°C 190º 6kt >10km - Overcast 3200ft 1022 - KRNT 291953Z 19006KT 10SM OVC032 17/09 A3019 RMK AO2 SLP226 T01720094
VFR 16.7°C / 9.4°C 200º 7kt >10km - Few Clouds 2700ft
Overcast 3500ft
1022 - KRNT 291853Z 20007KT 10SM FEW027 OVC035 17/09 A3019 RMK AO2 SLP227 T01670094
VFR 15.6°C / 9.4°C 170º 5kt >10km - Overcast 3800ft 1022 - KRNT 291753Z 17005KT 10SM OVC038 16/09 A3019 RMK AO2 SLP226 60000 T01560094 10156 20133
VFR 15°C / 10°C 180º 5kt >10km - Few Clouds 2100ft
Overcast 3300ft
- KRNT 291700Z 18005KT 10SM FEW021 OVC033 15/10 A3018 RMK AO2 T01500100 $
MVFR 14.4°C / 10.6°C 180º 5kt >10km - Few Clouds 1700ft
Overcast 2200ft
1022 - KRNT 291653Z 18005KT 10SM FEW017 OVC022 14/11 A3019 RMK AO2 SLP226 T01440106 $
MVFR 14.4°C / 9.4°C 200º 6kt >10km - Few Clouds 1700ft
Overcast 2200ft
- KRNT 291603Z 20006KT 10SM FEW017 OVC022 14/09 A3018 RMK AO2 T01440094 $
MVFR 14.4°C / 10°C >10km - Scattered Clouds 1700ft
Overcast 2500ft
1021 - KRNT 291453Z 10SM SCT017 OVC025 14/10 A3016 RMK AO2 SLP217 60000 T01440100 51009
MVFR 13.9°C / 10.6°C 170º 4kt >10km 0.13mm precipitation Overcast 2100ft 1021 - KRNT 291353Z 17004KT 10SM OVC021 14/11 A3015 RMK AO2 RAE03 SLP215 P0000 T01390106
MVFR 13.9°C / 10.6°C variable 5kt 6400m Light Rain 0.13mm precipitation Overcast 2100ft 1021 - KRNT 291253Z AUTO VRB05KT 4SM -RA OVC021 14/11 A3014 RMK AO2 RAB53 SLP211 P0000 T01390106
MVFR 13.3°C / 10.6°C 230º 6kt 6400m Haze Vertical Visibility of 0ft. - KRNT 291206Z AUTO 23006KT 4SM HZ OVC016 13/11 A3013 RMK AO2 T01330106
MVFR 13.9°C / 10.6°C 250º 6kt >10km - Broken Clouds 1400ft
Overcast 3400ft
1020 - KRNT 291153Z AUTO 25006KT 7SM BKN014 OVC034 14/11 A3013 RMK AO2 SLP208 T01390106 10156 20139 51007
MVFR 14°C / 11°C 250º 7kt >10km - Broken Clouds 1400ft
Overcast 3200ft
- KRNT 291151Z AUTO 25007KT 8SM BKN014 OVC032 14/11 A3013 RMK AO2
VFR 15°C / 11.1°C variable 6kt >10km - Scattered Clouds 1600ft
Broken Clouds 3500ft
Overcast 5500ft
- KRNT 291131Z AUTO VRB06KT 10SM SCT016 BKN035 OVC055 15/11 A3013 RMK AO2 T01500111
MVFR 15°C / 11.1°C variable 0kt >10km - Scattered Clouds 1500ft
Broken Clouds 2300ft
Overcast 4100ft
- KRNT 291101Z AUTO 00000KT 10SM SCT015 BKN023 OVC041 15/11 A3013 RMK AO2 T01500111

VFR

15°C / 10.6°C

[Più]
Vento variable 0kt
Visibilità >10km
Meteo -
Nuvole Clear
Pressione 1021
Cambiamento -
Grezzo KRNT 300553Z 00000KT 10SM CLR 15/11 A3015 RMK AO2 SLP215 60000 T01500106 10194 20150 58001

VFR

16.1°C / 10.6°C

[Più]
Vento variable 0kt
Visibilità >10km
Meteo 0.13mm precipitation
Nuvole Clear
Pressione 1021
Cambiamento -
Grezzo KRNT 300453Z 00000KT 10SM CLR 16/11 A3015 RMK AO2 RAB31E42 SLP216 P0000 T01610106

VFR

17.8°C / 11.1°C

[Più]
Vento variable 0kt
Visibilità 9700m
Meteo Haze
Nuvole Vertical Visibility of 0ft.
Pressione 1021
Cambiamento -
Grezzo KRNT 300353Z 00000KT 6SM HZ CLR 18/11 A3015 RMK AO2 SLP215 T01780111

VFR

18.3°C / 10.6°C

[Più]
Vento 340º 3kt
Visibilità >10km
Meteo -
Nuvole Broken Clouds 4600ft
Pressione 1021
Cambiamento -
Grezzo KRNT 300253Z 34003KT 8SM BKN046 18/11 A3016 RMK AO2 SLP216 T01830106 56002

VFR

18.9°C / 10.6°C

[Più]
Vento 330º 5kt
Visibilità >10km
Meteo -
Nuvole Overcast 4400ft
Pressione 1021
Cambiamento -
Grezzo KRNT 300153Z 33005KT 9SM OVC044 19/11 A3016 RMK AO2 SLP216 T01890106

VFR

18.9°C / 10°C

[Più]
Vento variable 0kt
Visibilità >10km
Meteo -
Nuvole Overcast 4300ft
Pressione 1021
Cambiamento -
Grezzo KRNT 300053Z 00000KT 9SM OVC043 19/10 A3016 RMK AO2 SLP217 T01890100

VFR

18.9°C / 10.6°C

[Più]
Vento 140º 5kt
Visibilità >10km
Meteo -
Nuvole Overcast 4700ft
Pressione 1021
Cambiamento -
Grezzo KRNT 292353Z 14005KT 9SM OVC047 19/11 A3016 RMK AO2 SLP218 T01890106 10194 20156 58007

VFR

18.3°C / 10°C

[Più]
Vento 80º 3kt
Visibilità >10km
Meteo -
Nuvole Overcast 4100ft
Pressione 1022
Cambiamento -
Grezzo KRNT 292253Z 08003KT 10SM OVC041 18/10 A3018 RMK AO2 SLP223 T01830100

VFR

17.8°C / 9.4°C

[Più]
Vento variable 4kt
Visibilità >10km
Meteo -
Nuvole Overcast 3900ft
Pressione 1022
Cambiamento -
Grezzo KRNT 292153Z VRB04KT 10SM OVC039 18/09 A3018 RMK AO2 SLP225 T01780094

VFR

17.8°C / 8.9°C

[Più]
Vento 180º 5kt
Visibilità >10km
Meteo -
Nuvole Overcast 3600ft
Pressione 1022
Cambiamento -
Grezzo KRNT 292053Z 18005KT 10SM OVC036 18/09 A3018 RMK AO2 SLP226 T01780089 58001

VFR

17.2°C / 9.4°C

[Più]
Vento 190º 6kt
Visibilità >10km
Meteo -
Nuvole Overcast 3200ft
Pressione 1022
Cambiamento -
Grezzo KRNT 291953Z 19006KT 10SM OVC032 17/09 A3019 RMK AO2 SLP226 T01720094

VFR

16.7°C / 9.4°C

[Più]
Vento 200º 7kt
Visibilità >10km
Meteo -
Nuvole Few Clouds 2700ft
Overcast 3500ft
Pressione 1022
Cambiamento -
Grezzo KRNT 291853Z 20007KT 10SM FEW027 OVC035 17/09 A3019 RMK AO2 SLP227 T01670094

VFR

15.6°C / 9.4°C

[Più]
Vento 170º 5kt
Visibilità >10km
Meteo -
Nuvole Overcast 3800ft
Pressione 1022
Cambiamento -
Grezzo KRNT 291753Z 17005KT 10SM OVC038 16/09 A3019 RMK AO2 SLP226 60000 T01560094 10156 20133

VFR

15°C / 10°C

[Più]
Vento 180º 5kt
Visibilità >10km
Meteo -
Nuvole Few Clouds 2100ft
Overcast 3300ft
Pressione
Cambiamento -
Grezzo KRNT 291700Z 18005KT 10SM FEW021 OVC033 15/10 A3018 RMK AO2 T01500100 $

MVFR

14.4°C / 10.6°C

[Più]
Vento 180º 5kt
Visibilità >10km
Meteo -
Nuvole Few Clouds 1700ft
Overcast 2200ft
Pressione 1022
Cambiamento -
Grezzo KRNT 291653Z 18005KT 10SM FEW017 OVC022 14/11 A3019 RMK AO2 SLP226 T01440106 $

MVFR

14.4°C / 9.4°C

[Più]
Vento 200º 6kt
Visibilità >10km
Meteo -
Nuvole Few Clouds 1700ft
Overcast 2200ft
Pressione
Cambiamento -
Grezzo KRNT 291603Z 20006KT 10SM FEW017 OVC022 14/09 A3018 RMK AO2 T01440094 $

MVFR

14.4°C / 10°C

[Più]
Vento
Visibilità >10km
Meteo -
Nuvole Scattered Clouds 1700ft
Overcast 2500ft
Pressione 1021
Cambiamento -
Grezzo KRNT 291453Z 10SM SCT017 OVC025 14/10 A3016 RMK AO2 SLP217 60000 T01440100 51009

MVFR

13.9°C / 10.6°C

[Più]
Vento 170º 4kt
Visibilità >10km
Meteo 0.13mm precipitation
Nuvole Overcast 2100ft
Pressione 1021
Cambiamento -
Grezzo KRNT 291353Z 17004KT 10SM OVC021 14/11 A3015 RMK AO2 RAE03 SLP215 P0000 T01390106

MVFR

13.9°C / 10.6°C

[Più]
Vento variable 5kt
Visibilità 6400m
Meteo Light Rain 0.13mm precipitation
Nuvole Overcast 2100ft
Pressione 1021
Cambiamento -
Grezzo KRNT 291253Z AUTO VRB05KT 4SM -RA OVC021 14/11 A3014 RMK AO2 RAB53 SLP211 P0000 T01390106

MVFR

13.3°C / 10.6°C

[Più]
Vento 230º 6kt
Visibilità 6400m
Meteo Haze
Nuvole Vertical Visibility of 0ft.
Pressione
Cambiamento -
Grezzo KRNT 291206Z AUTO 23006KT 4SM HZ OVC016 13/11 A3013 RMK AO2 T01330106

MVFR

13.9°C / 10.6°C

[Più]
Vento 250º 6kt
Visibilità >10km
Meteo -
Nuvole Broken Clouds 1400ft
Overcast 3400ft
Pressione 1020
Cambiamento -
Grezzo KRNT 291153Z AUTO 25006KT 7SM BKN014 OVC034 14/11 A3013 RMK AO2 SLP208 T01390106 10156 20139 51007

MVFR

14°C / 11°C

[Più]
Vento 250º 7kt
Visibilità >10km
Meteo -
Nuvole Broken Clouds 1400ft
Overcast 3200ft
Pressione
Cambiamento -
Grezzo KRNT 291151Z AUTO 25007KT 8SM BKN014 OVC032 14/11 A3013 RMK AO2

VFR

15°C / 11.1°C

[Più]
Vento variable 6kt
Visibilità >10km
Meteo -
Nuvole Scattered Clouds 1600ft
Broken Clouds 3500ft
Overcast 5500ft
Pressione
Cambiamento -
Grezzo KRNT 291131Z AUTO VRB06KT 10SM SCT016 BKN035 OVC055 15/11 A3013 RMK AO2 T01500111

MVFR

15°C / 11.1°C

[Più]
Vento variable 0kt
Visibilità >10km
Meteo -
Nuvole Scattered Clouds 1500ft
Broken Clouds 2300ft
Overcast 4100ft
Pressione
Cambiamento -
Grezzo KRNT 291101Z AUTO 00000KT 10SM SCT015 BKN023 OVC041 15/11 A3013 RMK AO2 T01500111

Radar e nowcasting per Renton

Pioviggine
Lieve
Moderato
Forte
Molto forte
Grandine

Il segnaposto è situato a Renton. Questa animazione mostra il radar delle precipitazioni per l'ultima ora, nonché una previsione 1h. Una pioviggine o una leggera caduta di neve potrebbero essere invisibili per il radar. L'intensità delle precipitazioni è codificata a colori, dal blu chiaro all'arancione.

Immagine satellitare per Renton, Stati Uniti

Il segnaposto è situato a Renton. [Più]

L'immagine satellitare in tempo reale combina la luce visibile durante il giorno con la radiazione infrarossa durante la notte. Di notte l'immagine non è scura poiché i raggi infrarossi possono rilevare differenze di temperatura. Purtroppo, le nuvole basse e la nebbia sono difficili da distinguere dalla temperatura del suolo e possono pertanto essere quasi invisibili durante la notte. Le immagini satellitari Meteosat per l'Europa vengono aggiornate in tempo reale ogni 5 minuti. Le immagini GOES-16 / GOES-17 (Nord e Sud America) e Himawari (Asia) vengono aggiornate ogni 10 minuti.

Tornare su